createdAt,value
2023-04-11T00:02:11.339Z,7.18
2023-04-11T00:04:44.071Z,7.25
2023-04-11T00:07:13.423Z,7.25
2023-04-11T00:09:42.040Z,7.53
2023-04-11T00:12:10.081Z,7.40
2023-04-11T00:14:38.481Z,8.13
2023-04-11T00:17:09.817Z,7.20
2023-04-11T00:19:38.055Z,7.65
2023-04-11T00:22:09.796Z,7.90
2023-04-11T00:24:37.883Z,8.00
2023-04-11T00:27:06.407Z,7.55
2023-04-11T00:29:35.664Z,7.75
2023-04-11T00:32:04.334Z,7.03
2023-04-11T00:34:32.496Z,7.25
2023-04-11T00:37:01.679Z,7.57
2023-04-11T00:39:34.322Z,7.55
2023-04-11T00:42:06.936Z,7.22
2023-04-11T00:44:36.482Z,7.43
2023-04-11T00:47:07.063Z,7.45
2023-04-11T00:49:35.540Z,7.88
2023-04-11T00:52:06.536Z,7.60
2023-04-11T00:54:35.927Z,6.90
2023-04-11T00:57:06.852Z,6.63
2023-04-11T00:59:34.986Z,6.88
2023-04-11T01:02:03.845Z,6.95
2023-04-11T01:04:32.731Z,7.78
2023-04-11T01:07:06.314Z,6.28
2023-04-11T01:09:36.420Z,7.18
2023-04-11T01:12:05.818Z,8.00
2023-04-11T01:14:34.072Z,7.07
2023-04-11T01:17:03.169Z,6.95
2023-04-11T01:19:31.646Z,7.10
2023-04-11T01:22:01.819Z,7.15
2023-04-11T01:24:33.181Z,6.53
2023-04-11T01:27:01.853Z,6.18
2023-04-11T01:29:30.189Z,6.95
2023-04-11T01:32:00.519Z,7.22
2023-04-11T01:34:29.136Z,7.05
2023-04-11T01:36:57.540Z,6.47
2023-04-11T01:39:26.279Z,6.90
2023-04-11T01:41:57.711Z,6.85
2023-04-11T01:44:28.138Z,7.70
2023-04-11T01:46:56.702Z,6.38
2023-04-11T01:49:26.107Z,6.65
2023-04-11T01:51:54.367Z,6.88
2023-04-11T01:54:22.516Z,7.05
2023-04-11T01:56:52.284Z,7.57
2023-04-11T01:59:21.712Z,6.28
2023-04-11T02:01:51.661Z,7.03
2023-04-11T02:04:19.940Z,6.32
2023-04-11T02:06:49.882Z,6.18
2023-04-11T02:09:18.356Z,6.75
2023-04-11T02:11:46.469Z,6.72
2023-04-11T02:14:15.331Z,7.40
2023-04-11T02:16:55.343Z,6.82
2023-04-11T02:19:26.062Z,6.85
2023-04-11T02:21:54.392Z,6.57
2023-04-11T02:24:22.881Z,7.22
2023-04-11T02:26:52.321Z,6.38
2023-04-11T02:29:21.705Z,6.90
2023-04-11T02:31:50.595Z,6.80
2023-04-11T02:34:20.713Z,6.80
2023-04-11T02:36:51.413Z,6.97
2023-04-11T02:39:20.462Z,6.97
2023-04-11T02:41:49.171Z,6.35
2023-04-11T02:44:20.634Z,6.80
2023-04-11T02:46:50.548Z,6.63
2023-04-11T02:49:20.314Z,6.85
2023-04-11T02:51:49.222Z,7.00
2023-04-11T02:54:17.504Z,7.38
2023-04-11T02:56:46.061Z,6.05
2023-04-11T02:59:14.183Z,6.65
2023-04-11T03:01:42.402Z,7.35
2023-04-11T03:04:10.652Z,6.38
2023-04-11T03:06:40.919Z,6.47
2023-04-11T03:09:09.894Z,6.65
2023-04-11T03:11:37.966Z,6.53
2023-04-11T03:14:06.860Z,6.50
2023-04-11T03:16:35.114Z,6.85
2023-04-11T03:19:03.716Z,6.22
2023-04-11T03:21:33.537Z,6.63
2023-04-11T03:24:03.485Z,6.82
2023-04-11T03:26:32.335Z,7.18
2023-04-11T03:29:00.479Z,7.25
2023-04-11T03:31:30.227Z,6.13
2023-04-11T03:33:59.274Z,6.95
2023-04-11T03:36:27.716Z,6.90
2023-04-11T03:38:56.086Z,7.28
2023-04-11T03:41:26.100Z,7.03
2023-04-11T03:43:54.170Z,7.22
2023-04-11T03:46:22.466Z,7.43
2023-04-11T03:48:50.526Z,7.68
2023-04-11T03:51:20.922Z,7.97
2023-04-11T03:53:49.090Z,8.30
2023-04-11T03:56:17.434Z,8.13
2023-04-11T03:58:47.069Z,9.20
2023-04-11T04:01:17.666Z,9.45
2023-04-11T04:03:47.455Z,10.45
2023-04-11T04:06:17.347Z,11.13
2023-04-11T04:08:46.539Z,10.02
2023-04-11T04:11:15.741Z,10.18
2023-04-11T04:13:43.806Z,11.18
2023-04-11T04:16:13.554Z,10.30
2023-04-11T04:18:43.151Z,12.75
2023-04-11T04:21:11.210Z,11.68
2023-04-11T04:23:48.299Z,11.45
2023-04-11T04:26:18.865Z,11.88
2023-04-11T04:28:48.431Z,12.32
2023-04-11T04:31:22.399Z,11.15
2023-04-11T04:33:51.489Z,13.80
2023-04-11T04:36:20.737Z,12.73
2023-04-11T04:38:48.937Z,12.88
2023-04-11T04:41:23.236Z,15.07
2023-04-11T04:43:54.748Z,13.55
2023-04-11T04:46:24.454Z,13.27
2023-04-11T04:48:52.719Z,13.02
2023-04-11T04:51:25.000Z,13.30
2023-04-11T04:53:54.599Z,13.85
2023-04-11T04:56:22.746Z,14.20
2023-04-11T04:58:52.074Z,13.43
2023-04-11T05:01:22.419Z,13.68
2023-04-11T05:03:59.322Z,13.48
2023-04-11T05:06:29.758Z,13.80
2023-04-11T05:08:59.121Z,14.50
2023-04-11T05:11:32.947Z,13.77
2023-04-11T05:14:01.353Z,14.73
2023-04-11T05:16:29.297Z,15.43
2023-04-11T05:18:59.654Z,15.38
2023-04-11T05:21:29.087Z,14.65
2023-04-11T05:23:58.393Z,15.00
2023-04-11T05:26:28.364Z,14.88
2023-04-11T05:28:57.066Z,14.70
2023-04-11T05:31:26.682Z,15.13
2023-04-11T05:33:59.600Z,14.18
2023-04-11T05:36:29.680Z,15.18
2023-04-11T05:39:01.152Z,15.13
2023-04-11T05:41:29.183Z,15.20
2023-04-11T05:43:57.428Z,15.27
2023-04-11T05:46:29.458Z,14.65
2023-04-11T05:49:00.966Z,13.90
2023-04-11T05:51:30.432Z,14.60
2023-04-11T05:53:59.157Z,15.18
2023-04-11T05:56:27.567Z,15.75
2023-04-11T05:58:57.166Z,16.30
2023-04-11T06:01:27.647Z,15.38
2023-04-11T06:03:58.799Z,14.18
2023-04-11T06:06:27.531Z,14.77
2023-04-11T06:08:59.185Z,16.15
2023-04-11T06:11:28.314Z,15.40
2023-04-11T06:13:58.876Z,16.10
2023-04-11T06:16:28.530Z,14.85
2023-04-11T06:18:56.602Z,15.77
2023-04-11T06:21:25.281Z,15.20
2023-04-11T06:23:53.643Z,14.52
2023-04-11T06:26:23.211Z,15.45
2023-04-11T06:28:51.380Z,14.55
2023-04-11T06:31:20.479Z,16.50
2023-04-11T06:33:48.524Z,15.85
2023-04-11T06:36:16.888Z,16.00
2023-04-11T06:38:44.998Z,15.90
2023-04-11T06:41:13.525Z,15.07
2023-04-11T06:43:43.199Z,14.75
2023-04-11T06:46:12.048Z,15.40
2023-04-11T06:48:40.132Z,15.55
2023-04-11T06:51:10.556Z,15.02
2023-04-11T06:53:39.342Z,14.98
2023-04-11T06:56:08.721Z,14.68
2023-04-11T06:58:40.519Z,14.35
2023-04-11T07:01:11.284Z,14.83
2023-04-11T07:03:42.512Z,13.93
2023-04-11T07:06:13.760Z,14.73
2023-04-11T07:08:42.256Z,13.55
2023-04-11T07:11:10.421Z,12.75
2023-04-11T07:13:39.723Z,13.32
2023-04-11T07:16:10.908Z,12.35
2023-04-11T07:18:39.183Z,12.77
2023-04-11T07:21:13.871Z,12.05
2023-04-11T07:23:42.580Z,12.18
2023-04-11T07:26:14.715Z,12.43
2023-04-11T07:28:44.744Z,11.65
2023-04-11T07:31:17.602Z,11.30
2023-04-11T07:33:46.778Z,11.57
2023-04-11T07:36:16.341Z,11.35
2023-04-11T07:38:44.796Z,10.93
2023-04-11T07:41:14.012Z,10.80
2023-04-11T07:43:42.301Z,9.35
2023-04-11T07:46:12.179Z,9.13
2023-04-11T07:48:42.279Z,9.95
2023-04-11T07:51:10.544Z,9.32
2023-04-11T07:53:39.076Z,10.15
2023-04-11T07:56:08.211Z,9.43
2023-04-11T07:58:36.615Z,8.57
2023-04-11T08:01:05.472Z,7.03
2023-04-11T08:03:36.832Z,6.43
2023-04-11T08:06:07.423Z,5.57
2023-04-11T08:08:36.510Z,3.45
2023-04-11T08:11:09.372Z,3.58
2023-04-11T08:13:37.847Z,3.05
2023-04-11T08:16:11.875Z,4.10
2023-04-11T08:18:42.683Z,4.85
2023-04-11T08:21:13.632Z,3.85
2023-04-11T08:23:46.101Z,3.83
2023-04-11T08:26:15.397Z,3.90
2023-04-11T08:28:46.153Z,3.25
2023-04-11T08:31:15.615Z,3.00
2023-04-11T08:33:44.042Z,3.10
2023-04-11T08:36:14.674Z,3.20
2023-04-11T08:38:46.153Z,3.13
2023-04-11T08:41:15.866Z,3.03
2023-04-11T08:43:46.776Z,2.95
2023-04-11T08:46:20.115Z,4.40
2023-04-11T08:48:50.726Z,3.13
2023-04-11T08:51:26.934Z,2.78
2023-04-11T08:53:58.177Z,2.80
2023-04-11T08:56:26.789Z,2.60
2023-04-11T08:58:56.483Z,2.35
2023-04-11T09:01:32.218Z,2.50
2023-04-11T09:04:01.299Z,99.10
2023-04-11T09:06:32.565Z,27.20
2023-04-11T09:09:02.652Z,3.10
2023-04-11T09:11:31.040Z,1.80
2023-04-11T09:14:08.867Z,1.70
2023-04-11T09:16:37.810Z,2.45
2023-04-11T09:19:25.567Z,2.03
2023-04-11T09:22:00.603Z,2.30
2023-04-11T09:24:30.756Z,1.52
2023-04-11T09:27:11.956Z,2.13
2023-04-11T09:29:45.496Z,1.98
2023-04-11T09:32:30.805Z,2.00
2023-04-11T09:35:12.851Z,2.72
2023-04-11T09:37:46.933Z,2.20
2023-04-11T09:40:21.231Z,2.58
2023-04-11T09:42:50.546Z,2.35
2023-04-11T09:45:21.708Z,2.28
2023-04-11T09:47:53.033Z,2.25
2023-04-11T09:50:21.617Z,2.60
2023-04-11T09:52:52.842Z,1.75
2023-04-11T09:55:22.570Z,1.65
2023-04-11T09:57:51.756Z,1.77
2023-04-11T10:00:22.115Z,1.65
2023-04-11T10:02:53.160Z,2.05
2023-04-11T10:05:26.069Z,1.77
2023-04-11T10:08:00.912Z,1.70
2023-04-11T10:10:29.252Z,1.60
2023-04-11T10:12:58.163Z,2.00
2023-04-11T10:15:26.583Z,1.58
2023-04-11T10:18:13.690Z,1.55
2023-04-11T10:20:49.316Z,1.85
2023-04-11T10:23:18.686Z,1.77
2023-04-11T10:25:52.251Z,2.03
2023-04-11T10:28:38.901Z,1.25
2023-04-11T10:31:10.054Z,1.90
2023-04-11T10:33:39.811Z,2.20
2023-04-11T10:36:10.476Z,1.77
2023-04-11T10:38:51.354Z,2.05
2023-04-11T10:41:32.014Z,3.72
2023-04-11T10:44:15.251Z,2.75
2023-04-11T10:46:49.049Z,2.28
2023-04-11T10:49:34.765Z,2.10
2023-04-11T10:52:22.742Z,2.22
2023-04-11T10:54:54.320Z,2.22
2023-04-11T10:57:22.976Z,1.67
2023-04-11T10:59:58.785Z,1.67
2023-04-11T11:02:38.631Z,1.80
2023-04-11T11:05:22.442Z,1.70
2023-04-11T11:07:52.532Z,1.70
2023-04-11T11:10:37.508Z,1.65
2023-04-11T11:13:07.919Z,1.70
2023-04-11T11:15:37.745Z,1.13
2023-04-11T11:18:08.485Z,1.60
2023-04-11T11:20:38.068Z,1.23
2023-04-11T11:23:08.566Z,1.30
2023-04-11T11:25:41.919Z,1.40
2023-04-11T11:28:10.661Z,1.08
2023-04-11T11:30:39.904Z,1.83
2023-04-11T11:33:15.870Z,1.45
2023-04-11T11:35:46.095Z,1.73
2023-04-11T11:38:14.780Z,1.17
2023-04-11T11:40:44.632Z,1.30
2023-04-11T11:43:14.227Z,1.38
2023-04-11T11:45:42.538Z,1.60
2023-04-11T11:48:20.850Z,1.55
2023-04-11T11:50:58.219Z,1.48
2023-04-11T11:53:28.096Z,1.60
2023-04-11T11:55:58.284Z,1.50
2023-04-11T11:58:27.422Z,1.55
2023-04-11T12:00:56.225Z,1.45
2023-04-11T12:03:25.349Z,1.52
2023-04-11T12:05:58.252Z,1.40
2023-04-11T12:08:27.347Z,1.33
2023-04-11T12:10:58.017Z,1.60
2023-04-11T12:13:28.079Z,1.48
2023-04-11T12:16:00.184Z,1.60
2023-04-11T12:18:29.086Z,1.65
2023-04-11T12:20:58.972Z,1.27
2023-04-11T12:23:28.441Z,1.25
2023-04-11T12:26:01.310Z,1.63
2023-04-11T12:28:32.338Z,1.95
2023-04-11T12:31:03.073Z,2.17
2023-04-11T12:33:31.612Z,1.80
2023-04-11T12:36:01.847Z,1.75
2023-04-11T12:38:30.409Z,1.60
2023-04-11T12:41:19.733Z,1.30
2023-04-11T12:43:47.995Z,1.55
2023-04-11T12:46:17.352Z,1.10
2023-04-11T12:48:45.841Z,1.20
2023-04-11T12:51:13.839Z,1.15
2023-04-11T12:53:41.830Z,0.90
2023-04-11T12:56:11.414Z,1.20
2023-04-11T12:58:39.866Z,1.10
2023-04-11T13:01:08.899Z,1.45
2023-04-11T13:03:38.459Z,0.95
2023-04-11T13:06:07.638Z,0.93
2023-04-11T13:08:35.987Z,1.35
2023-04-11T13:11:04.321Z,1.15
2023-04-11T13:13:33.865Z,0.93
2023-04-11T13:16:03.678Z,0.93
2023-04-11T13:18:32.065Z,1.15
2023-04-11T13:21:01.348Z,1.30
2023-04-11T13:23:29.520Z,1.58
2023-04-11T13:25:58.681Z,1.50
2023-04-11T13:28:27.430Z,1.60
2023-04-11T13:30:57.167Z,1.33
2023-04-11T13:33:26.348Z,2.60
2023-04-11T13:35:54.399Z,2.10
2023-04-11T13:38:28.673Z,2.50
2023-04-11T13:40:56.713Z,1.83
2023-04-11T13:43:24.818Z,1.60
2023-04-11T13:45:54.625Z,1.70
2023-04-11T13:48:24.513Z,1.77
2023-04-11T13:50:52.768Z,1.70
2023-04-11T13:53:21.112Z,1.77
2023-04-11T13:55:49.166Z,1.30
2023-04-11T13:58:17.384Z,1.20
2023-04-11T14:00:49.661Z,1.75
2023-04-11T14:03:19.737Z,1.83
2023-04-11T14:05:49.696Z,1.10
2023-04-11T14:08:19.359Z,2.35
2023-04-11T14:10:47.667Z,1.27
2023-04-11T14:13:16.295Z,1.55
2023-04-11T14:15:47.716Z,1.20
2023-04-11T14:18:18.910Z,1.35
2023-04-11T14:20:48.413Z,1.67
2023-04-11T14:23:18.886Z,1.25
2023-04-11T14:25:49.420Z,1.23
2023-04-11T14:28:20.597Z,1.55
2023-04-11T14:30:49.198Z,1.30
2023-04-11T14:33:19.098Z,1.40
2023-04-11T14:35:48.341Z,2.08
2023-04-11T14:38:19.827Z,1.45
2023-04-11T14:40:50.905Z,1.88
2023-04-11T14:43:19.230Z,1.15
2023-04-11T14:45:47.857Z,1.48
2023-04-11T14:48:16.554Z,1.40
2023-04-11T14:50:44.835Z,1.30
2023-04-11T14:53:16.469Z,1.40
2023-04-11T14:55:46.326Z,1.67
2023-04-11T14:58:16.877Z,1.98
2023-04-11T15:00:47.114Z,1.70
2023-04-11T15:03:16.916Z,1.20
2023-04-11T15:05:46.631Z,1.20
2023-04-11T15:08:15.757Z,1.13
2023-04-11T15:10:45.871Z,1.23
2023-04-11T15:13:13.870Z,1.30
2023-04-11T15:15:42.217Z,1.05
2023-04-11T15:18:21.665Z,1.10
2023-04-11T15:20:50.121Z,0.90
2023-04-11T15:23:19.450Z,1.33
2023-04-11T15:25:53.684Z,1.50
2023-04-11T15:28:22.379Z,1.20
2023-04-11T15:30:52.286Z,1.30
2023-04-11T15:33:22.139Z,1.30
2023-04-11T15:35:51.966Z,1.30
2023-04-11T15:38:20.939Z,1.73
2023-04-11T15:40:53.238Z,1.38
2023-04-11T15:43:21.478Z,1.77
2023-04-11T15:45:49.985Z,6.25
2023-04-11T15:48:19.362Z,2.80
2023-04-11T15:50:47.731Z,2.45
2023-04-11T15:53:15.901Z,2.00
2023-04-11T15:55:44.711Z,1.70
2023-04-11T15:58:14.251Z,1.90
2023-04-11T16:00:44.094Z,1.50
2023-04-11T16:03:12.398Z,1.50
2023-04-11T16:05:43.415Z,1.30
2023-04-11T16:08:12.059Z,1.50
2023-04-11T16:10:40.495Z,1.25
2023-04-11T16:13:11.050Z,1.00
2023-04-11T16:15:40.429Z,1.52
2023-04-11T16:18:08.717Z,1.17
2023-04-11T16:20:37.099Z,1.35
2023-04-11T16:23:05.692Z,1.60
2023-04-11T16:25:35.370Z,1.23
2023-04-11T16:28:03.908Z,1.48
2023-04-11T16:30:33.731Z,1.77
2023-04-11T16:33:05.722Z,1.73
2023-04-11T16:35:34.114Z,1.23
2023-04-11T16:38:02.274Z,1.73
2023-04-11T16:40:32.990Z,1.40
2023-04-11T16:43:01.291Z,1.60
2023-04-11T16:45:29.883Z,1.23
2023-04-11T16:47:58.047Z,1.52
2023-04-11T16:50:27.732Z,1.48
2023-04-11T16:53:03.377Z,1.48
2023-04-11T16:55:31.446Z,1.13
2023-04-11T16:57:59.591Z,1.40
2023-04-11T17:00:29.356Z,1.25
2023-04-11T17:02:58.754Z,1.25
2023-04-11T17:05:28.424Z,1.38
2023-04-11T17:07:57.880Z,1.42
2023-04-11T17:10:26.372Z,1.55
2023-04-11T17:12:55.928Z,2.20
2023-04-11T17:15:25.935Z,1.52
2023-04-11T17:17:54.050Z,1.75
2023-04-11T17:20:23.413Z,1.20
2023-04-11T17:22:55.289Z,2.03
2023-04-11T17:25:38.338Z,2.40
2023-04-11T17:28:06.446Z,1.90
2023-04-11T17:30:37.598Z,1.80
2023-04-11T17:33:09.984Z,1.73
2023-04-11T17:35:40.848Z,1.90
2023-04-11T17:38:11.360Z,1.95
2023-04-11T17:40:41.416Z,1.40
2023-04-11T17:43:09.392Z,1.17
2023-04-11T17:45:39.991Z,1.65
2023-04-11T17:48:09.311Z,0.98
2023-04-11T17:50:38.295Z,1.10
2023-04-11T17:53:08.232Z,1.00
2023-04-11T17:55:38.137Z,1.25
2023-04-11T17:58:06.610Z,0.90
2023-04-11T18:00:48.481Z,1.33
2023-04-11T18:03:22.354Z,1.30
2023-04-11T18:05:54.982Z,1.00
2023-04-11T18:08:35.518Z,1.13
2023-04-11T18:11:13.048Z,1.10
2023-04-11T18:13:44.990Z,1.10
2023-04-11T18:16:14.529Z,1.02
2023-04-11T18:18:43.062Z,1.55
2023-04-11T18:21:11.143Z,1.30
2023-04-11T18:23:39.551Z,1.30
2023-04-11T18:26:08.017Z,1.48
2023-04-11T18:28:37.659Z,1.60
2023-04-11T18:31:10.239Z,1.25
2023-04-11T18:33:41.599Z,2.25
2023-04-11T18:36:13.165Z,1.33
2023-04-11T18:38:43.897Z,1.23
2023-04-11T18:41:13.370Z,1.17
2023-04-11T18:43:42.952Z,1.20
2023-04-11T18:46:11.310Z,1.38
2023-04-11T18:48:39.706Z,1.50
2023-04-11T18:51:11.610Z,1.55
2023-04-11T18:53:42.082Z,2.30
2023-04-11T18:56:10.426Z,1.40
2023-04-11T19:01:16.426Z,1.05
2023-04-11T19:03:47.898Z,1.30
2023-04-11T19:06:17.172Z,1.20
2023-04-11T19:08:46.184Z,1.40
2023-04-11T19:11:14.190Z,1.35
2023-04-11T19:13:42.235Z,1.55
2023-04-11T19:16:10.411Z,1.63
2023-04-11T19:18:39.912Z,1.55
2023-04-11T19:21:10.956Z,1.70
2023-04-11T19:23:39.012Z,1.70
2023-04-11T19:26:10.194Z,1.40
2023-04-11T19:28:39.663Z,1.60
2023-04-11T19:31:07.735Z,1.10
2023-04-11T19:33:42.521Z,1.40
2023-04-11T19:36:13.242Z,1.35
2023-04-11T19:38:41.482Z,1.75
2023-04-11T19:41:13.248Z,1.48
2023-04-11T19:43:42.723Z,1.50
2023-04-11T19:46:13.164Z,1.73
2023-04-11T19:48:42.879Z,1.42
2023-04-11T19:51:14.672Z,1.40
2023-04-11T19:53:42.982Z,1.67
2023-04-11T19:56:11.087Z,1.85
2023-04-11T19:58:39.903Z,2.13
2023-04-11T20:01:08.418Z,1.73
2023-04-11T20:03:37.584Z,2.10
2023-04-11T20:06:07.820Z,1.92
2023-04-11T20:08:41.206Z,2.03
2023-04-11T20:11:09.862Z,1.90
2023-04-11T20:13:39.331Z,1.50
2023-04-11T20:16:09.691Z,2.00
2023-04-11T20:18:37.823Z,2.05
2023-04-11T20:21:08.006Z,2.28
2023-04-11T20:23:37.422Z,2.00
2023-04-11T20:26:09.426Z,2.22
2023-04-11T20:28:41.193Z,2.33
2023-04-11T20:31:09.365Z,2.33
2023-04-11T20:33:37.448Z,1.92
2023-04-11T20:36:06.437Z,1.90
2023-04-11T20:38:35.135Z,2.80
2023-04-11T20:41:05.702Z,2.30
2023-04-11T20:43:37.710Z,2.78
2023-04-11T20:46:08.653Z,2.92
2023-04-11T20:48:37.833Z,2.65
2023-04-11T20:51:09.580Z,2.50
2023-04-11T20:53:39.011Z,2.42
2023-04-11T20:56:08.427Z,2.20
2023-04-11T20:58:39.556Z,2.33
2023-04-11T21:01:07.828Z,2.10
2023-04-11T21:03:37.716Z,2.40
2023-04-11T21:06:07.547Z,3.17
2023-04-11T21:08:37.740Z,2.53
2023-04-11T21:11:07.366Z,2.88
2023-04-11T21:13:36.092Z,2.72
2023-04-11T21:16:06.685Z,3.08
2023-04-11T21:18:34.995Z,2.90
2023-04-11T21:21:07.588Z,2.55
2023-04-11T21:23:40.584Z,2.35
2023-04-11T21:26:08.924Z,2.72
2023-04-11T21:28:37.508Z,2.28
2023-04-11T21:31:08.665Z,2.28
2023-04-11T21:33:39.629Z,2.78
2023-04-11T21:36:11.146Z,2.08
2023-04-11T21:38:41.342Z,2.15
2023-04-11T21:41:10.514Z,3.40
2023-04-11T21:43:41.381Z,2.38
2023-04-11T21:46:14.551Z,2.40
2023-04-11T21:48:43.197Z,2.65
2023-04-11T21:51:13.572Z,2.38
2023-04-11T21:53:41.863Z,2.35
2023-04-11T21:56:10.920Z,2.65
2023-04-11T21:58:39.100Z,2.40
2023-04-11T22:01:12.255Z,2.08
2023-04-11T22:03:41.627Z,3.00
2023-04-11T22:06:11.996Z,2.33
2023-04-11T22:08:42.264Z,2.13
2023-04-11T22:11:14.515Z,2.42
2023-04-11T22:13:46.325Z,1.95
2023-04-11T22:16:16.048Z,2.05
2023-04-11T22:18:50.335Z,2.38
2023-04-11T22:21:20.164Z,2.58
2023-04-11T22:23:49.989Z,2.60
2023-04-11T22:26:18.159Z,2.40
2023-04-11T22:28:46.557Z,2.33
2023-04-11T22:31:16.537Z,2.33
2023-04-11T22:33:46.804Z,2.42
2023-04-11T22:36:15.188Z,2.60
2023-04-11T22:38:45.144Z,2.97
2023-04-11T22:41:19.215Z,2.67
2023-04-11T22:43:47.845Z,2.83
2023-04-11T22:46:17.826Z,2.60
2023-04-11T22:48:47.798Z,2.58
2023-04-11T22:51:17.857Z,2.08
2023-04-11T22:53:48.176Z,2.55
2023-04-11T22:56:16.633Z,2.47
2023-04-11T22:58:46.024Z,2.70
2023-04-11T23:01:14.563Z,2.80
2023-04-11T23:03:46.804Z,2.95
2023-04-11T23:06:15.689Z,2.30
2023-04-11T23:08:45.058Z,2.50
2023-04-11T23:11:16.237Z,2.97
2023-04-11T23:13:44.740Z,2.33
2023-04-11T23:16:14.796Z,2.60
2023-04-11T23:18:44.904Z,2.50
2023-04-11T23:21:14.975Z,2.33
2023-04-11T23:23:44.049Z,2.88
2023-04-11T23:26:19.352Z,2.42
2023-04-11T23:28:48.231Z,2.63
2023-04-11T23:31:17.647Z,2.53
2023-04-11T23:33:49.111Z,3.10
2023-04-11T23:36:17.778Z,2.70
2023-04-11T23:38:47.796Z,3.05
2023-04-11T23:41:16.173Z,2.65
2023-04-11T23:43:44.668Z,3.50
2023-04-11T23:46:13.234Z,2.70
2023-04-11T23:48:42.567Z,3.13
2023-04-11T23:51:12.210Z,2.45
2023-04-11T23:53:41.112Z,2.67
2023-04-11T23:56:09.949Z,3.03
2023-04-11T23:58:39.473Z,2.80
